createdAt,value
2019-01-25T00:01:36.813Z,52.90
2019-01-25T00:04:06.120Z,50.05
2019-01-25T00:06:35.302Z,47.23
2019-01-25T00:09:07.607Z,49.48
2019-01-25T00:11:36.801Z,51.77
2019-01-25T00:14:06.536Z,50.00
2019-01-25T00:16:35.769Z,51.42
2019-01-25T00:19:05.314Z,48.90
2019-01-25T00:21:34.520Z,50.00
2019-01-25T00:24:03.641Z,53.30
2019-01-25T00:26:32.789Z,54.60
2019-01-25T00:29:01.821Z,51.33
2019-01-25T00:31:30.997Z,53.73
2019-01-25T00:34:00.110Z,51.40
2019-01-25T00:36:29.263Z,47.38
2019-01-25T00:38:58.734Z,53.13
2019-01-25T00:41:27.860Z,51.90
2019-01-25T00:43:56.975Z,56.60
2019-01-25T00:46:26.373Z,57.13
2019-01-25T00:48:56.586Z,56.53
2019-01-25T00:51:25.983Z,54.50
2019-01-25T00:53:55.237Z,55.58
2019-01-25T00:56:24.286Z,60.25
2019-01-25T00:58:53.417Z,60.95
2019-01-25T01:01:22.601Z,59.13
2019-01-25T01:03:51.726Z,57.93
2019-01-25T01:06:20.890Z,57.05
2019-01-25T01:08:50.171Z,53.80
2019-01-25T01:11:19.266Z,57.10
2019-01-25T01:13:48.400Z,52.50
2019-01-25T01:16:17.565Z,49.05
2019-01-25T01:18:46.671Z,53.15
2019-01-25T01:21:15.966Z,49.27
2019-01-25T01:23:45.139Z,52.53
2019-01-25T01:26:14.363Z,52.90
2019-01-25T01:28:43.560Z,49.60
2019-01-25T01:31:12.747Z,55.35
2019-01-25T01:33:41.942Z,46.80
2019-01-25T01:36:11.591Z,55.28
2019-01-25T01:38:40.855Z,56.55
2019-01-25T01:41:09.964Z,53.05
2019-01-25T01:43:39.141Z,51.02
2019-01-25T01:46:08.261Z,51.05
2019-01-25T01:48:37.419Z,57.93
2019-01-25T01:51:06.624Z,53.68
2019-01-25T01:53:35.769Z,49.93
2019-01-25T01:56:05.031Z,48.38
2019-01-25T01:58:34.409Z,46.60
2019-01-25T02:01:04.043Z,51.77
2019-01-25T02:03:33.328Z,47.50
2019-01-25T02:06:02.456Z,49.65
2019-01-25T02:08:31.681Z,51.02
2019-01-25T02:11:00.938Z,51.80
2019-01-25T02:13:30.088Z,48.13
2019-01-25T02:15:59.439Z,51.53
2019-01-25T02:18:28.774Z,50.78
2019-01-25T02:20:58.135Z,45.48
2019-01-25T02:23:27.859Z,54.38
2019-01-25T02:25:57.155Z,51.58
2019-01-25T02:28:26.331Z,50.08
2019-01-25T02:30:55.481Z,46.08
2019-01-25T02:33:24.599Z,50.12
2019-01-25T02:35:54.365Z,55.90
2019-01-25T02:38:23.541Z,52.23
2019-01-25T02:40:52.935Z,52.30
2019-01-25T02:43:22.462Z,51.30
2019-01-25T02:45:51.870Z,50.67
2019-01-25T02:48:21.320Z,53.45
2019-01-25T02:50:50.926Z,50.83
2019-01-25T02:53:20.375Z,51.55
2019-01-25T02:55:49.830Z,60.70
2019-01-25T02:58:19.236Z,53.92
2019-01-25T03:00:48.718Z,52.83
2019-01-25T03:03:18.182Z,54.13
2019-01-25T03:05:47.589Z,53.55
2019-01-25T03:08:17.106Z,54.80
2019-01-25T03:20:47.630Z,57.33
2019-01-25T03:32:43.471Z,55.83
2019-01-25T03:35:13.393Z,53.80
2019-01-25T03:37:42.533Z,55.75
2019-01-25T03:40:15.349Z,48.87
2019-01-25T03:42:44.522Z,52.80
2019-01-25T03:45:14.225Z,48.87
2019-01-25T03:48:19.934Z,48.73
2019-01-25T03:50:49.283Z,57.15
2019-01-25T04:07:12.245Z,49.13
2019-01-25T04:09:41.424Z,54.83
2019-01-25T04:12:10.546Z,54.53
2019-01-25T04:14:39.751Z,58.55
2019-01-25T04:17:08.908Z,61.42
2019-01-25T04:23:22.084Z,58.38
2019-01-25T04:46:41.465Z,59.53
2019-01-25T04:49:10.605Z,61.50
2019-01-25T04:51:39.509Z,65.17
2019-01-25T04:54:08.565Z,62.50
2019-01-25T04:56:40.802Z,57.05
2019-01-25T04:59:10.155Z,58.30
2019-01-25T05:01:39.229Z,59.18
2019-01-25T05:04:09.360Z,61.53
2019-01-25T05:06:38.472Z,62.95
2019-01-25T05:09:09.260Z,64.50
2019-01-25T05:11:38.281Z,70.30
2019-01-25T05:14:07.433Z,63.63
2019-01-25T05:16:36.545Z,62.38
2019-01-25T05:19:05.817Z,61.15
2019-01-25T05:21:35.214Z,72.12
2019-01-25T05:24:11.135Z,66.57
2019-01-25T05:26:42.662Z,70.28
2019-01-25T05:29:11.652Z,62.85
2019-01-25T05:31:40.649Z,64.40
2019-01-25T05:34:09.678Z,69.32
2019-01-25T05:36:38.585Z,64.65
2019-01-25T05:39:11.975Z,73.95
2019-01-25T05:41:41.076Z,66.95
2019-01-25T05:44:10.233Z,58.70
2019-01-25T05:46:39.414Z,64.10
2019-01-25T05:49:08.608Z,66.72
2019-01-25T05:51:37.673Z,71.90
2019-01-25T05:54:06.612Z,71.02
2019-01-25T05:56:42.501Z,72.17
2019-01-25T05:59:11.754Z,65.72
2019-01-25T06:01:42.225Z,67.10
2019-01-25T06:04:11.355Z,63.92
2019-01-25T06:06:40.457Z,71.97
2019-01-25T06:09:09.803Z,66.37
2019-01-25T06:11:40.054Z,67.47
2019-01-25T06:14:12.090Z,67.20
2019-01-25T06:16:42.709Z,65.57
2019-01-25T06:19:11.853Z,68.42
2019-01-25T06:21:40.843Z,64.75
2019-01-25T06:24:09.941Z,60.12
2019-01-25T06:26:42.176Z,61.53
2019-01-25T06:29:11.319Z,62.90
2019-01-25T06:31:40.556Z,71.95
2019-01-25T06:34:09.585Z,67.40
2019-01-25T06:36:38.706Z,68.40
2019-01-25T06:39:09.360Z,57.38
2019-01-25T06:41:43.941Z,69.10
2019-01-25T06:44:09.273Z,62.53
2019-01-25T06:46:38.121Z,70.45
2019-01-25T06:49:07.196Z,68.42
2019-01-25T06:51:36.172Z,63.50
2019-01-25T06:54:05.126Z,63.48
2019-01-25T06:56:34.074Z,67.12
2019-01-25T06:59:17.618Z,64.00
2019-01-25T07:02:00.489Z,63.95
2019-01-25T07:04:29.628Z,71.70
2019-01-25T07:06:58.817Z,66.25
2019-01-25T07:09:27.998Z,68.37
2019-01-25T07:11:56.985Z,67.00
2019-01-25T07:14:26.081Z,70.90
2019-01-25T07:16:55.612Z,68.47
2019-01-25T07:19:24.542Z,68.40
2019-01-25T07:21:53.512Z,67.27
2019-01-25T07:24:22.813Z,66.20
2019-01-25T07:26:52.266Z,63.35
2019-01-25T07:29:21.758Z,67.75
2019-01-25T07:31:50.947Z,71.80
2019-01-25T07:34:20.048Z,68.12
2019-01-25T07:36:49.068Z,66.55
2019-01-25T07:39:30.753Z,68.72
2019-01-25T07:42:02.265Z,66.22
2019-01-25T07:44:30.929Z,68.75
2019-01-25T07:47:00.164Z,65.70
2019-01-25T07:49:29.314Z,75.40
2019-01-25T07:51:58.709Z,71.35
2019-01-25T07:54:27.804Z,67.67
2019-01-25T07:56:56.993Z,72.37
2019-01-25T07:59:26.165Z,67.12
2019-01-25T08:01:55.267Z,70.83
2019-01-25T08:04:24.573Z,68.62
2019-01-25T08:06:53.720Z,72.05
2019-01-25T08:09:23.113Z,74.27
2019-01-25T08:11:52.250Z,64.72
2019-01-25T08:14:21.348Z,73.45
2019-01-25T08:16:50.657Z,67.37
2019-01-25T08:19:19.935Z,69.37
2019-01-25T08:21:48.950Z,73.45
2019-01-25T08:24:17.974Z,71.07
2019-01-25T08:26:47.179Z,70.50
2019-01-25T08:29:16.073Z,73.05
2019-01-25T08:31:45.005Z,74.37
2019-01-25T08:34:14.026Z,72.90
2019-01-25T08:36:43.185Z,70.45
2019-01-25T08:39:12.262Z,72.00
2019-01-25T08:41:41.358Z,66.97
2019-01-25T08:44:12.238Z,70.90
2019-01-25T08:46:41.607Z,68.80
2019-01-25T08:49:10.684Z,75.47
2019-01-25T08:51:39.735Z,68.02
2019-01-25T08:54:08.781Z,64.22
2019-01-25T08:56:37.878Z,74.67
2019-01-25T08:59:07.237Z,69.72
2019-01-25T09:01:36.333Z,72.80
2019-01-25T09:04:05.550Z,73.90
2019-01-25T09:06:34.551Z,74.30
2019-01-25T09:09:05.901Z,68.20
2019-01-25T09:11:36.374Z,68.33
2019-01-25T09:14:10.901Z,71.02
2019-01-25T09:16:39.993Z,68.80
2019-01-25T09:19:09.069Z,65.87
2019-01-25T09:21:38.153Z,77.08
2019-01-25T09:24:07.552Z,70.40
2019-01-25T09:26:36.867Z,70.10
2019-01-25T09:29:06.168Z,68.35
2019-01-25T09:31:35.322Z,67.20
2019-01-25T09:34:04.357Z,77.40
2019-01-25T09:36:33.574Z,79.72
2019-01-25T09:39:03.084Z,76.95
2019-01-25T09:41:32.045Z,69.77
2019-01-25T09:44:01.118Z,63.83
2019-01-25T09:46:30.269Z,67.78
2019-01-25T09:48:59.223Z,64.27
2019-01-25T09:51:28.293Z,66.85
2019-01-25T09:53:57.335Z,68.10
2019-01-25T09:56:26.337Z,73.52
2019-01-25T09:58:56.529Z,67.37
2019-01-25T10:01:25.591Z,69.80
2019-01-25T10:03:54.765Z,68.50
2019-01-25T10:06:24.219Z,66.50
2019-01-25T10:08:53.462Z,61.83
2019-01-25T10:11:22.590Z,64.25
2019-01-25T10:13:51.770Z,66.30
2019-01-25T10:16:20.865Z,63.63
2019-01-25T10:18:49.726Z,60.03
2019-01-25T10:21:18.735Z,63.02
2019-01-25T10:23:47.697Z,67.22
2019-01-25T10:26:16.810Z,65.52
2019-01-25T10:28:45.757Z,61.25
2019-01-25T10:31:14.764Z,62.80
2019-01-25T10:33:43.861Z,64.47
2019-01-25T10:36:12.864Z,60.12
2019-01-25T10:38:41.909Z,61.55
2019-01-25T10:41:10.888Z,62.20
2019-01-25T10:43:39.940Z,72.05
2019-01-25T10:46:09.377Z,64.72
2019-01-25T10:48:38.557Z,58.87
2019-01-25T10:51:07.581Z,55.03
2019-01-25T10:53:36.709Z,59.27
2019-01-25T10:56:06.113Z,63.05
2019-01-25T10:58:35.468Z,58.78
2019-01-25T11:01:04.886Z,62.23
2019-01-25T11:03:33.869Z,58.78
2019-01-25T11:06:02.921Z,58.05
2019-01-25T11:08:32.971Z,57.75
2019-01-25T11:11:02.356Z,58.58
2019-01-25T11:13:31.535Z,53.25
2019-01-25T11:16:00.590Z,58.90
2019-01-25T11:18:29.908Z,59.90
2019-01-25T11:20:58.957Z,62.13
2019-01-25T11:23:28.029Z,57.75
2019-01-25T11:25:57.384Z,54.75
2019-01-25T11:28:26.477Z,55.03
2019-01-25T11:30:55.520Z,56.13
2019-01-25T11:33:24.602Z,56.92
2019-01-25T11:35:53.748Z,55.35
2019-01-25T11:38:22.910Z,50.92
2019-01-25T11:40:52.094Z,53.95
2019-01-25T11:43:21.261Z,43.85
2019-01-25T11:45:54.319Z,44.83
2019-01-25T11:48:21.546Z,41.63
2019-01-25T11:50:50.838Z,44.33
2019-01-25T11:53:19.936Z,40.28
2019-01-25T11:55:49.438Z,42.25
2019-01-25T11:58:18.640Z,45.00
2019-01-25T12:00:48.381Z,39.70
2019-01-25T12:03:17.616Z,41.98
2019-01-25T12:05:47.037Z,39.40
2019-01-25T12:08:16.279Z,40.20
2019-01-25T12:10:45.829Z,36.83
2019-01-25T12:13:16.197Z,37.85
2019-01-25T12:15:45.817Z,37.88
2019-01-25T12:18:15.122Z,40.80
2019-01-25T12:20:44.273Z,40.88
2019-01-25T12:23:13.319Z,35.95
2019-01-25T12:25:42.501Z,34.13
2019-01-25T12:28:11.622Z,36.05
2019-01-25T12:30:41.009Z,34.60
2019-01-25T12:33:10.707Z,33.70
2019-01-25T12:35:41.992Z,33.28
2019-01-25T12:38:11.236Z,31.35
2019-01-25T12:40:42.250Z,35.90
2019-01-25T12:43:11.576Z,34.40
2019-01-25T12:45:40.671Z,31.30
2019-01-25T12:48:10.034Z,31.07
2019-01-25T12:50:55.466Z,31.00
2019-01-25T12:53:26.090Z,28.12
2019-01-25T12:55:55.280Z,29.35
2019-01-25T12:58:24.325Z,21.97
2019-01-25T13:00:53.530Z,22.48
2019-01-25T13:03:22.886Z,25.00
2019-01-25T13:05:52.476Z,25.23
2019-01-25T13:08:21.613Z,22.42
2019-01-25T13:10:50.801Z,21.15
2019-01-25T13:13:20.077Z,20.17
2019-01-25T13:15:49.164Z,21.75
2019-01-25T13:18:18.248Z,19.87
2019-01-25T13:20:47.336Z,20.35
2019-01-25T13:23:16.948Z,19.50
2019-01-25T13:25:47.371Z,21.70
2019-01-25T13:28:16.706Z,19.40
2019-01-25T13:30:46.048Z,19.35
2019-01-25T13:33:15.456Z,13.30
2019-01-25T13:35:44.936Z,16.07
2019-01-25T13:38:14.146Z,18.95
2019-01-25T13:40:43.253Z,20.72
2019-01-25T13:43:12.314Z,23.32
2019-01-25T13:45:41.429Z,19.20
2019-01-25T13:48:10.425Z,24.30
2019-01-25T13:50:45.203Z,21.90
2019-01-25T13:53:14.310Z,23.25
2019-01-25T13:55:43.725Z,21.15
2019-01-25T13:58:12.802Z,22.27
2019-01-25T14:00:41.933Z,18.77
2019-01-25T14:03:11.068Z,16.15
2019-01-25T14:05:40.137Z,17.42
2019-01-25T14:08:09.241Z,13.80
2019-01-25T14:10:38.668Z,13.43
2019-01-25T14:13:07.764Z,11.93
2019-01-25T14:15:37.159Z,13.43
2019-01-25T14:18:06.965Z,10.85
2019-01-25T14:20:36.253Z,12.33
2019-01-25T14:23:06.983Z,14.07
2019-01-25T14:25:36.299Z,13.38
2019-01-25T14:28:05.506Z,15.85
2019-01-25T14:30:52.050Z,21.70
2019-01-25T14:33:21.270Z,20.62
2019-01-25T14:35:50.626Z,17.30
2019-01-25T14:38:20.152Z,18.05
2019-01-25T14:40:49.285Z,18.35
2019-01-25T14:43:20.218Z,20.10
2019-01-25T14:45:49.369Z,22.27
2019-01-25T14:48:18.549Z,20.27
2019-01-25T14:50:47.690Z,21.97
2019-01-25T14:53:16.769Z,19.00
2019-01-25T14:55:45.933Z,16.57
2019-01-25T14:58:15.013Z,17.82
2019-01-25T15:00:44.054Z,23.40
2019-01-25T15:03:13.112Z,20.75
2019-01-25T15:05:42.129Z,18.90
2019-01-25T15:08:11.211Z,18.02
2019-01-25T15:10:40.327Z,19.15
2019-01-25T15:13:09.517Z,16.50
2019-01-25T15:15:40.395Z,17.70
2019-01-25T15:18:09.708Z,18.98
2019-01-25T15:20:38.629Z,17.27
2019-01-25T15:23:07.639Z,78.20
2019-01-25T15:25:36.665Z,20.68
2019-01-25T15:28:05.788Z,18.60
2019-01-25T15:30:36.703Z,20.12
2019-01-25T15:33:05.781Z,18.82
2019-01-25T15:35:34.865Z,19.92
2019-01-25T15:38:04.003Z,30.40
2019-01-25T15:40:33.480Z,36.17
2019-01-25T15:43:02.583Z,34.55
2019-01-25T15:45:31.708Z,39.50
2019-01-25T15:48:00.812Z,41.50
2019-01-25T15:50:31.746Z,39.92
2019-01-25T15:53:00.815Z,41.05
2019-01-25T15:55:29.961Z,45.28
2019-01-25T15:57:58.987Z,46.68
2019-01-25T16:00:29.495Z,46.10
2019-01-25T16:02:58.524Z,46.33
2019-01-25T16:05:27.704Z,43.70
2019-01-25T16:07:56.865Z,45.05
2019-01-25T16:10:26.524Z,48.08
2019-01-25T16:12:55.648Z,45.83
2019-01-25T16:15:28.135Z,45.73
2019-01-25T16:17:57.494Z,50.92
2019-01-25T16:20:26.617Z,48.90
2019-01-25T16:22:56.000Z,49.30
2019-01-25T16:25:32.897Z,47.25
2019-01-25T16:28:01.944Z,47.90
2019-01-25T16:30:36.477Z,50.78
2019-01-25T16:33:06.058Z,51.60
2019-01-25T16:35:35.179Z,50.20
2019-01-25T16:38:04.692Z,43.42
2019-01-25T16:40:33.775Z,49.63
2019-01-25T16:43:02.791Z,52.43
2019-01-25T16:45:40.417Z,42.35
2019-01-25T16:48:09.591Z,45.20
2019-01-25T16:50:39.797Z,49.35
2019-01-25T16:53:11.350Z,47.67
2019-01-25T16:55:40.426Z,51.92
2019-01-25T16:58:09.522Z,41.53
2019-01-25T17:00:46.687Z,48.73
2019-01-25T17:03:15.745Z,44.45
2019-01-25T17:05:44.930Z,51.75
2019-01-25T17:08:14.267Z,47.65
2019-01-25T17:10:43.341Z,49.58
2019-01-25T17:13:12.440Z,46.83
2019-01-25T17:15:41.489Z,48.95
2019-01-25T17:18:10.634Z,50.05
2019-01-25T17:20:39.695Z,46.80
2019-01-25T17:23:08.704Z,50.45
2019-01-25T17:25:37.646Z,51.70
2019-01-25T17:28:08.333Z,53.50
2019-01-25T17:30:38.556Z,51.98
2019-01-25T17:33:07.553Z,50.80
2019-01-25T17:35:36.604Z,54.33
2019-01-25T17:38:06.690Z,48.95
2019-01-25T17:40:46.517Z,50.00
2019-01-25T17:43:12.182Z,50.73
2019-01-25T17:45:41.305Z,51.48
2019-01-25T17:48:10.557Z,48.78
2019-01-25T17:50:39.869Z,49.25
2019-01-25T17:53:08.989Z,50.67
2019-01-25T17:55:38.121Z,53.50
2019-01-25T17:58:08.169Z,45.83
2019-01-25T18:00:41.703Z,49.20
2019-01-25T18:03:10.760Z,45.23
2019-01-25T18:05:39.817Z,44.75
2019-01-25T18:08:08.960Z,47.17
2019-01-25T18:10:38.017Z,47.90
2019-01-25T18:13:07.001Z,47.40
2019-01-25T18:15:36.082Z,41.90
2019-01-25T18:18:05.604Z,46.28
2019-01-25T18:20:34.675Z,48.25
2019-01-25T18:23:03.740Z,42.40
2019-01-25T18:25:47.449Z,48.50
2019-01-25T18:28:19.972Z,45.78
2019-01-25T18:30:58.247Z,43.57
2019-01-25T18:33:27.307Z,43.73
2019-01-25T18:35:56.322Z,47.27
2019-01-25T18:38:25.340Z,44.55
2019-01-25T18:40:54.345Z,46.13
2019-01-25T18:43:23.405Z,48.70
2019-01-25T18:45:52.397Z,42.05
2019-01-25T18:48:21.581Z,40.78
2019-01-25T18:50:50.582Z,50.60
2019-01-25T18:53:19.712Z,49.18
2019-01-25T18:55:48.778Z,43.80
2019-01-25T18:58:17.814Z,48.85
2019-01-25T19:00:46.925Z,50.05
2019-01-25T19:03:16.018Z,44.13
2019-01-25T19:05:44.897Z,43.40
2019-01-25T19:08:13.864Z,44.00
2019-01-25T19:10:42.985Z,44.93
2019-01-25T19:13:12.015Z,50.10
2019-01-25T19:15:42.502Z,49.20
2019-01-25T19:18:11.495Z,43.25
2019-01-25T19:20:40.534Z,45.33
2019-01-25T19:23:09.565Z,48.23
2019-01-25T19:25:38.546Z,40.55
2019-01-25T19:28:09.056Z,43.87
2019-01-25T19:30:41.353Z,45.00
2019-01-25T19:33:10.426Z,41.75
2019-01-25T19:35:39.531Z,42.05
2019-01-25T19:38:10.246Z,46.42
2019-01-25T19:40:39.295Z,42.00
2019-01-25T19:43:09.203Z,48.15
2019-01-25T19:45:38.241Z,44.33
2019-01-25T19:48:07.623Z,43.20
2019-01-25T19:50:36.673Z,39.75
2019-01-25T19:53:06.342Z,37.90
2019-01-25T19:55:35.453Z,40.23
2019-01-25T19:58:06.085Z,40.28
2019-01-25T20:00:37.463Z,44.27
2019-01-25T20:03:07.501Z,39.80
2019-01-25T20:05:36.615Z,40.83
2019-01-25T20:08:06.077Z,41.75
2019-01-25T20:10:35.270Z,41.35
2019-01-25T20:13:04.447Z,47.00
2019-01-25T20:15:33.849Z,39.55
2019-01-25T20:18:03.281Z,43.05
2019-01-25T20:20:33.656Z,45.35
2019-01-25T20:23:02.887Z,39.65
2019-01-25T20:25:34.493Z,39.55
2019-01-25T20:28:04.941Z,44.73
2019-01-25T20:30:33.997Z,38.50
2019-01-25T20:33:03.606Z,38.85
2019-01-25T20:35:35.566Z,46.63
2019-01-25T20:38:05.395Z,45.08
2019-01-25T20:40:34.973Z,39.88
2019-01-25T20:43:04.561Z,39.53
2019-01-25T20:45:35.398Z,37.73
2019-01-25T20:48:04.504Z,38.35
2019-01-25T20:50:37.120Z,36.68
2019-01-25T20:53:07.418Z,33.00
2019-01-25T20:55:36.570Z,33.98
2019-01-25T20:58:06.065Z,34.48
2019-01-25T21:00:36.885Z,34.83
2019-01-25T21:03:08.165Z,34.33
2019-01-25T21:05:38.338Z,34.23
2019-01-25T21:08:07.484Z,42.20
2019-01-25T21:10:36.533Z,37.33
2019-01-25T21:13:05.879Z,33.70
2019-01-25T21:15:35.607Z,36.38
2019-01-25T21:18:06.390Z,35.85
2019-01-25T21:20:38.265Z,44.98
2019-01-25T21:23:07.781Z,37.98
2019-01-25T21:25:36.905Z,41.55
2019-01-25T21:28:06.449Z,38.30
2019-01-25T21:30:35.768Z,35.83
2019-01-25T21:33:05.301Z,31.93
2019-01-25T21:35:34.340Z,41.02
2019-01-25T21:38:03.380Z,36.00
2019-01-25T21:40:32.986Z,33.02
2019-01-25T21:43:02.152Z,36.28
2019-01-25T21:45:33.064Z,35.98
2019-01-25T21:48:03.545Z,36.93
2019-01-25T21:50:34.931Z,34.78
2019-01-25T21:53:04.209Z,36.08
2019-01-25T21:55:33.228Z,30.35
2019-01-25T21:58:05.331Z,32.23
2019-01-25T22:00:33.449Z,30.27
2019-01-25T22:03:03.069Z,29.70
2019-01-25T22:05:32.480Z,29.98
2019-01-25T22:08:01.605Z,30.70
2019-01-25T22:10:36.540Z,30.80
2019-01-25T22:13:05.777Z,30.70
2019-01-25T22:15:34.864Z,31.23
2019-01-25T22:18:03.937Z,26.45
2019-01-25T22:20:32.988Z,26.85
2019-01-25T22:23:02.017Z,29.87
2019-01-25T22:25:31.109Z,26.07
2019-01-25T22:28:00.449Z,25.65
2019-01-25T22:30:29.801Z,25.30
2019-01-25T22:32:58.935Z,26.02
2019-01-25T22:35:28.208Z,25.52
2019-01-25T22:37:57.548Z,27.17
2019-01-25T22:40:28.661Z,28.12
2019-01-25T22:42:57.876Z,26.27
2019-01-25T22:45:28.467Z,29.60
2019-01-25T22:47:58.779Z,26.52
2019-01-25T22:50:29.615Z,25.90
2019-01-25T22:52:58.682Z,23.05
2019-01-25T22:55:28.038Z,27.52
2019-01-25T22:57:57.062Z,22.70
2019-01-25T23:00:48.924Z,22.40
2019-01-25T23:03:20.933Z,24.98
2019-01-25T23:06:17.942Z,24.35
2019-01-25T23:08:47.514Z,22.95
2019-01-25T23:11:16.618Z,21.52
2019-01-25T23:13:45.552Z,23.02
2019-01-25T23:16:14.654Z,22.65
2019-01-25T23:18:43.731Z,22.00
2019-01-25T23:21:12.772Z,24.27
2019-01-25T23:23:42.088Z,19.50
2019-01-25T23:26:11.166Z,22.17
2019-01-25T23:28:40.557Z,19.20
2019-01-25T23:31:09.524Z,24.52
2019-01-25T23:33:38.748Z,21.55
2019-01-25T23:36:07.954Z,22.82
2019-01-25T23:38:37.042Z,23.73
2019-01-25T23:41:06.067Z,22.17
2019-01-25T23:43:35.029Z,20.08
2019-01-25T23:46:04.024Z,20.75
2019-01-25T23:48:33.113Z,21.20
2019-01-25T23:51:02.151Z,25.17
2019-01-25T23:53:31.133Z,22.07
2019-01-25T23:56:00.530Z,19.12
2019-01-25T23:58:29.382Z,24.43
